sensor_id;sensor_type;location;lat;lon;timestamp;temperature;humidity
52513;DHT22;38422;53.172;6.974;2024-03-23T00:54:34;6.90;99.90
52513;DHT22;38422;53.172;6.974;2024-03-23T00:57:00;6.90;99.90
52513;DHT22;38422;53.172;6.974;2024-03-23T00:59:25;6.90;99.90
52513;DHT22;38422;53.172;6.974;2024-03-23T01:01:54;6.90;99.90
52513;DHT22;38422;53.172;6.974;2024-03-23T01:04:21;6.90;99.90
52513;DHT22;38422;53.172;6.974;2024-03-23T01:06:47;6.90;99.90
52513;DHT22;38422;53.172;6.974;2024-03-23T01:09:12;6.90;99.90
52513;DHT22;38422;53.172;6.974;2024-03-23T01:11:39;6.90;99.90
52513;DHT22;38422;53.172;6.974;2024-03-23T01:14:05;6.90;99.90
52513;DHT22;38422;53.172;6.974;2024-03-23T01:16:34;6.90;99.90
52513;DHT22;38422;53.172;6.974;2024-03-23T01:18:59;6.80;99.90
52513;DHT22;38422;53.172;6.974;2024-03-23T01:21:25;6.70;99.90
52513;DHT22;38422;53.172;6.974;2024-03-23T01:23:51;6.70;99.90
52513;DHT22;38422;53.172;6.974;2024-03-23T01:26:16;6.60;99.90
52513;DHT22;38422;53.172;6.974;2024-03-23T01:28:42;6.60;99.90
52513;DHT22;38422;53.172;6.974;2024-03-23T01:31:08;6.60;99.90
52513;DHT22;38422;53.172;6.974;2024-03-23T01:33:34;6.60;99.90
52513;DHT22;38422;53.172;6.974;2024-03-23T01:35:59;6.50;99.90
52513;DHT22;38422;53.172;6.974;2024-03-23T01:38:25;6.50;99.90
52513;DHT22;38422;53.172;6.974;2024-03-23T01:40:56;6.50;99.90
52513;DHT22;38422;53.172;6.974;2024-03-23T01:43:23;6.40;99.90
52513;DHT22;38422;53.172;6.974;2024-03-23T01:45:48;6.40;99.90
52513;DHT22;38422;53.172;6.974;2024-03-23T01:48:14;6.40;99.90
52513;DHT22;38422;53.172;6.974;2024-03-23T01:50:40;6.30;99.90
52513;DHT22;38422;53.172;6.974;2024-03-23T01:53:05;6.30;99.90
52513;DHT22;38422;53.172;6.974;2024-03-23T01:55:32;6.30;99.90
52513;DHT22;38422;53.172;6.974;2024-03-23T01:57:58;6.30;99.90
52513;DHT22;38422;53.172;6.974;2024-03-23T02:00:24;6.30;99.90
52513;DHT22;38422;53.172;6.974;2024-03-23T02:02:50;6.20;99.90
52513;DHT22;38422;53.172;6.974;2024-03-23T02:05:16;6.20;99.90
52513;DHT22;38422;53.172;6.974;2024-03-23T02:07:42;6.20;99.90
52513;DHT22;38422;53.172;6.974;2024-03-23T02:10:10;6.20;99.90
52513;DHT22;38422;53.172;6.974;2024-03-23T02:12:36;6.20;99.90
52513;DHT22;38422;53.172;6.974;2024-03-23T02:15:03;6.10;99.90
52513;DHT22;38422;53.172;6.974;2024-03-23T02:17:30;6.10;99.90
52513;DHT22;38422;53.172;6.974;2024-03-23T02:19:57;6.10;99.90
52513;DHT22;38422;53.172;6.974;2024-03-23T02:22:23;6.10;99.90
52513;DHT22;38422;53.172;6.974;2024-03-23T02:24:48;6.00;99.90
52513;DHT22;38422;53.172;6.974;2024-03-23T02:27:14;6.00;99.90
52513;DHT22;38422;53.172;6.974;2024-03-23T02:29:40;6.00;99.90
52513;DHT22;38422;53.172;6.974;2024-03-23T02:32:06;6.00;99.90
52513;DHT22;38422;53.172;6.974;2024-03-23T02:34:31;5.90;99.90
52513;DHT22;38422;53.172;6.974;2024-03-23T02:36:57;5.90;99.90
52513;DHT22;38422;53.172;6.974;2024-03-23T02:39:23;5.90;99.90
52513;DHT22;38422;53.172;6.974;2024-03-23T02:41:48;6.00;99.90
52513;DHT22;38422;53.172;6.974;2024-03-23T02:44:14;5.90;99.90
52513;DHT22;38422;53.172;6.974;2024-03-23T02:46:40;5.90;99.90
52513;DHT22;38422;53.172;6.974;2024-03-23T02:49:07;5.90;99.90
52513;DHT22;38422;53.172;6.974;2024-03-23T02:51:32;5.80;99.90
52513;DHT22;38422;53.172;6.974;2024-03-23T02:53:58;5.80;99.90
52513;DHT22;38422;53.172;6.974;2024-03-23T02:56:24;5.80;99.90
52513;DHT22;38422;53.172;6.974;2024-03-23T02:58:49;5.80;99.90
52513;DHT22;38422;53.172;6.974;2024-03-23T03:01:15;5.80;99.90
52513;DHT22;38422;53.172;6.974;2024-03-23T03:03:41;5.90;99.90
52513;DHT22;38422;53.172;6.974;2024-03-23T03:06:06;5.80;99.90
52513;DHT22;38422;53.172;6.974;2024-03-23T03:08:32;5.90;99.90
52513;DHT22;38422;53.172;6.974;2024-03-23T03:10:58;5.90;99.90
52513;DHT22;38422;53.172;6.974;2024-03-23T03:13:24;5.80;99.90
52513;DHT22;38422;53.172;6.974;2024-03-23T03:15:49;5.90;99.90
52513;DHT22;38422;53.172;6.974;2024-03-23T03:18:15;5.80;99.90
52513;DHT22;38422;53.172;6.974;2024-03-23T03:20:41;5.80;99.90
52513;DHT22;38422;53.172;6.974;2024-03-23T03:23:07;5.80;99.90
52513;DHT22;38422;53.172;6.974;2024-03-23T03:25:33;5.80;99.90
52513;DHT22;38422;53.172;6.974;2024-03-23T03:27:59;5.80;99.90
52513;DHT22;38422;53.172;6.974;2024-03-23T03:30:25;5.80;99.90
52513;DHT22;38422;53.172;6.974;2024-03-23T03:32:53;5.80;99.90
52513;DHT22;38422;53.172;6.974;2024-03-23T03:35:19;5.80;99.90
52513;DHT22;38422;53.172;6.974;2024-03-23T03:37:45;5.80;99.90
52513;DHT22;38422;53.172;6.974;2024-03-23T03:40:11;5.70;99.90
52513;DHT22;38422;53.172;6.974;2024-03-23T03:42:37;5.70;99.90
52513;DHT22;38422;53.172;6.974;2024-03-23T03:45:04;5.70;99.90
52513;DHT22;38422;53.172;6.974;2024-03-23T03:47:30;5.80;99.90
52513;DHT22;38422;53.172;6.974;2024-03-23T03:49:56;5.80;99.90
52513;DHT22;38422;53.172;6.974;2024-03-23T03:52:21;5.70;99.90
52513;DHT22;38422;53.172;6.974;2024-03-23T03:54:47;5.70;99.90
52513;DHT22;38422;53.172;6.974;2024-03-23T03:57:13;5.70;99.90
52513;DHT22;38422;53.172;6.974;2024-03-23T03:59:39;5.70;99.90
52513;DHT22;38422;53.172;6.974;2024-03-23T04:02:04;5.70;99.90
52513;DHT22;38422;53.172;6.974;2024-03-23T04:04:30;5.70;99.90
52513;DHT22;38422;53.172;6.974;2024-03-23T04:07:00;5.60;99.90
52513;DHT22;38422;53.172;6.974;2024-03-23T04:09:25;5.70;99.90
52513;DHT22;38422;53.172;6.974;2024-03-23T04:11:51;5.60;99.90
52513;DHT22;38422;53.172;6.974;2024-03-23T04:14:17;5.60;99.90
52513;DHT22;38422;53.172;6.974;2024-03-23T04:16:43;5.60;99.90
52513;DHT22;38422;53.172;6.974;2024-03-23T04:19:08;5.60;99.90
52513;DHT22;38422;53.172;6.974;2024-03-23T04:21:35;5.60;99.90
52513;DHT22;38422;53.172;6.974;2024-03-23T04:24:01;5.60;99.90
52513;DHT22;38422;53.172;6.974;2024-03-23T04:26:26;5.60;99.90
52513;DHT22;38422;53.172;6.974;2024-03-23T04:28:53;5.50;99.90
52513;DHT22;38422;53.172;6.974;2024-03-23T04:31:19;5.60;99.90
52513;DHT22;38422;53.172;6.974;2024-03-23T04:33:44;5.50;99.90
52513;DHT22;38422;53.172;6.974;2024-03-23T04:36:10;5.50;99.90
52513;DHT22;38422;53.172;6.974;2024-03-23T04:38:36;5.50;99.90
52513;DHT22;38422;53.172;6.974;2024-03-23T04:41:02;5.40;99.90
52513;DHT22;38422;53.172;6.974;2024-03-23T04:43:27;5.40;99.90
52513;DHT22;38422;53.172;6.974;2024-03-23T04:45:54;5.30;99.90
52513;DHT22;38422;53.172;6.974;2024-03-23T04:48:21;5.30;99.90
52513;DHT22;38422;53.172;6.974;2024-03-23T04:50:54;5.30;99.90
52513;DHT22;38422;53.172;6.974;2024-03-23T04:53:21;5.30;99.90
52513;DHT22;38422;53.172;6.974;2024-03-23T04:55:46;5.20;99.90
52513;DHT22;38422;53.172;6.974;2024-03-23T04:58:12;5.20;99.90
52513;DHT22;38422;53.172;6.974;2024-03-23T05:00:38;5.20;99.90
52513;DHT22;38422;53.172;6.974;2024-03-23T05:03:04;5.20;99.90
52513;DHT22;38422;53.172;6.974;2024-03-23T05:05:30;5.20;99.90
52513;DHT22;38422;53.172;6.974;2024-03-23T05:07:55;5.20;99.90
52513;DHT22;38422;53.172;6.974;2024-03-23T05:10:21;5.20;99.90
52513;DHT22;38422;53.172;6.974;2024-03-23T05:12:46;5.20;99.90
52513;DHT22;38422;53.172;6.974;2024-03-23T05:15:12;5.20;99.90
52513;DHT22;38422;53.172;6.974;2024-03-23T05:17:38;5.20;99.90
52513;DHT22;38422;53.172;6.974;2024-03-23T05:20:05;5.20;99.90
52513;DHT22;38422;53.172;6.974;2024-03-23T05:22:38;5.20;99.90
52513;DHT22;38422;53.172;6.974;2024-03-23T05:25:03;5.10;99.90
52513;DHT22;38422;53.172;6.974;2024-03-23T05:27:32;5.10;99.90
52513;DHT22;38422;53.172;6.974;2024-03-23T05:29:58;5.10;99.90
52513;DHT22;38422;53.172;6.974;2024-03-23T05:32:24;5.10;99.90
52513;DHT22;38422;53.172;6.974;2024-03-23T05:34:50;5.10;99.90
52513;DHT22;38422;53.172;6.974;2024-03-23T05:37:21;5.10;99.90
52513;DHT22;38422;53.172;6.974;2024-03-23T05:39:47;5.10;99.90
52513;DHT22;38422;53.172;6.974;2024-03-23T05:42:16;5.10;99.90
52513;DHT22;38422;53.172;6.974;2024-03-23T05:44:45;5.00;99.90
52513;DHT22;38422;53.172;6.974;2024-03-23T05:47:11;5.00;99.90
52513;DHT22;38422;53.172;6.974;2024-03-23T05:49:42;5.00;99.90
52513;DHT22;38422;53.172;6.974;2024-03-23T05:52:08;5.10;99.90
52513;DHT22;38422;53.172;6.974;2024-03-23T05:54:37;5.00;99.90
52513;DHT22;38422;53.172;6.974;2024-03-23T05:57:03;5.00;99.90
52513;DHT22;38422;53.172;6.974;2024-03-23T05:59:29;5.00;99.90
52513;DHT22;38422;53.172;6.974;2024-03-23T06:01:54;5.10;99.90
52513;DHT22;38422;53.172;6.974;2024-03-23T06:04:20;5.10;99.90
52513;DHT22;38422;53.172;6.974;2024-03-23T06:06:47;5.10;99.90
52513;DHT22;38422;53.172;6.974;2024-03-23T06:09:12;5.10;99.90
52513;DHT22;38422;53.172;6.974;2024-03-23T06:11:38;5.10;99.90
52513;DHT22;38422;53.172;6.974;2024-03-23T06:14:04;5.10;99.90
52513;DHT22;38422;53.172;6.974;2024-03-23T06:16:30;5.10;99.90
52513;DHT22;38422;53.172;6.974;2024-03-23T06:18:56;5.20;99.90
52513;DHT22;38422;53.172;6.974;2024-03-23T06:21:22;5.20;99.90
52513;DHT22;38422;53.172;6.974;2024-03-23T06:23:52;5.20;99.90
52513;DHT22;38422;53.172;6.974;2024-03-23T06:26:18;5.30;99.90
52513;DHT22;38422;53.172;6.974;2024-03-23T06:28:45;5.30;99.90
52513;DHT22;38422;53.172;6.974;2024-03-23T06:31:11;5.40;99.90
52513;DHT22;38422;53.172;6.974;2024-03-23T06:33:37;5.40;99.90
52513;DHT22;38422;53.172;6.974;2024-03-23T06:36:07;5.50;99.90
52513;DHT22;38422;53.172;6.974;2024-03-23T06:38:34;5.50;99.90
52513;DHT22;38422;53.172;6.974;2024-03-23T06:41:02;5.60;99.90
52513;DHT22;38422;53.172;6.974;2024-03-23T06:43:28;5.80;99.90
52513;DHT22;38422;53.172;6.974;2024-03-23T06:45:54;5.90;99.90
52513;DHT22;38422;53.172;6.974;2024-03-23T06:48:21;6.10;99.90
52513;DHT22;38422;53.172;6.974;2024-03-23T06:50:47;6.20;99.90
52513;DHT22;38422;53.172;6.974;2024-03-23T06:53:13;6.30;99.90
52513;DHT22;38422;53.172;6.974;2024-03-23T06:55:39;6.30;99.90
52513;DHT22;38422;53.172;6.974;2024-03-23T06:58:05;6.30;99.90
52513;DHT22;38422;53.172;6.974;2024-03-23T07:00:31;6.20;99.90
52513;DHT22;38422;53.172;6.974;2024-03-23T07:02:58;6.10;99.90
52513;DHT22;38422;53.172;6.974;2024-03-23T07:05:23;6.10;99.90
52513;DHT22;38422;53.172;6.974;2024-03-23T07:07:49;6.10;99.90
52513;DHT22;38422;53.172;6.974;2024-03-23T07:10:15;6.00;99.90
52513;DHT22;38422;53.172;6.974;2024-03-23T07:12:41;6.00;99.90
52513;DHT22;38422;53.172;6.974;2024-03-23T07:15:07;6.00;99.90
52513;DHT22;38422;53.172;6.974;2024-03-23T07:17:33;6.10;99.90
52513;DHT22;38422;53.172;6.974;2024-03-23T07:20:01;6.00;99.90
52513;DHT22;38422;53.172;6.974;2024-03-23T07:22:30;6.00;99.90
52513;DHT22;38422;53.172;6.974;2024-03-23T07:24:55;6.10;99.90
52513;DHT22;38422;53.172;6.974;2024-03-23T07:27:21;6.00;99.90
52513;DHT22;38422;53.172;6.974;2024-03-23T07:29:47;6.00;99.90
52513;DHT22;38422;53.172;6.974;2024-03-23T07:32:12;6.10;99.90
52513;DHT22;38422;53.172;6.974;2024-03-23T07:34:38;6.10;99.90
52513;DHT22;38422;53.172;6.974;2024-03-23T07:37:03;6.20;99.90
52513;DHT22;38422;53.172;6.974;2024-03-23T07:39:29;6.30;99.90
52513;DHT22;38422;53.172;6.974;2024-03-23T07:41:57;6.30;99.90
52513;DHT22;38422;53.172;6.974;2024-03-23T07:44:23;6.40;99.90
52513;DHT22;38422;53.172;6.974;2024-03-23T07:46:48;6.40;99.90
52513;DHT22;38422;53.172;6.974;2024-03-23T07:49:14;6.40;99.90
52513;DHT22;38422;53.172;6.974;2024-03-23T07:51:40;6.40;99.90
52513;DHT22;38422;53.172;6.974;2024-03-23T07:54:06;6.40;99.90
52513;DHT22;38422;53.172;6.974;2024-03-23T07:56:32;6.30;99.90
52513;DHT22;38422;53.172;6.974;2024-03-23T07:58:58;6.40;99.90
52513;DHT22;38422;53.172;6.974;2024-03-23T08:01:23;6.40;99.90
52513;DHT22;38422;53.172;6.974;2024-03-23T08:03:49;6.40;99.90
52513;DHT22;38422;53.172;6.974;2024-03-23T08:06:19;6.40;99.90
52513;DHT22;38422;53.172;6.974;2024-03-23T08:08:47;6.40;99.90
52513;DHT22;38422;53.172;6.974;2024-03-23T08:11:13;6.50;99.90
52513;DHT22;38422;53.172;6.974;2024-03-23T08:13:40;6.50;99.90
52513;DHT22;38422;53.172;6.974;2024-03-23T08:16:06;6.60;99.90
52513;DHT22;38422;53.172;6.974;2024-03-23T08:18:32;6.60;99.90
52513;DHT22;38422;53.172;6.974;2024-03-23T08:21:01;6.70;99.90
52513;DHT22;38422;53.172;6.974;2024-03-23T08:23:28;6.80;99.90
52513;DHT22;38422;53.172;6.974;2024-03-23T08:25:58;6.90;99.90
52513;DHT22;38422;53.172;6.974;2024-03-23T08:28:24;7.00;99.90
52513;DHT22;38422;53.172;6.974;2024-03-23T08:30:50;7.10;99.90
52513;DHT22;38422;53.172;6.974;2024-03-23T08:33:16;7.20;99.90
52513;DHT22;38422;53.172;6.974;2024-03-23T08:35:42;7.30;99.90
52513;DHT22;38422;53.172;6.974;2024-03-23T08:38:07;7.40;99.90
52513;DHT22;38422;53.172;6.974;2024-03-23T08:40:33;7.60;99.90
52513;DHT22;38422;53.172;6.974;2024-03-23T08:42:59;7.70;99.90
52513;DHT22;38422;53.172;6.974;2024-03-23T08:45:25;7.70;99.90
52513;DHT22;38422;53.172;6.974;2024-03-23T08:47:51;7.70;99.90
52513;DHT22;38422;53.172;6.974;2024-03-23T08:50:17;7.70;99.90
52513;DHT22;38422;53.172;6.974;2024-03-23T08:52:43;7.60;99.90
52513;DHT22;38422;53.172;6.974;2024-03-23T08:55:09;7.60;99.90
52513;DHT22;38422;53.172;6.974;2024-03-23T08:57:35;7.70;99.90
52513;DHT22;38422;53.172;6.974;2024-03-23T09:00:02;7.70;99.90
52513;DHT22;38422;53.172;6.974;2024-03-23T09:02:28;7.90;99.90
52513;DHT22;38422;53.172;6.974;2024-03-23T09:04:53;7.90;99.90
52513;DHT22;38422;53.172;6.974;2024-03-23T09:07:19;8.00;99.90
52513;DHT22;38422;53.172;6.974;2024-03-23T09:09:44;8.10;99.90
52513;DHT22;38422;53.172;6.974;2024-03-23T09:12:10;8.20;99.90
52513;DHT22;38422;53.172;6.974;2024-03-23T09:14:36;8.10;99.90
52513;DHT22;38422;53.172;6.974;2024-03-23T09:17:02;8.10;99.90
52513;DHT22;38422;53.172;6.974;2024-03-23T09:19:30;8.20;99.90
52513;DHT22;38422;53.172;6.974;2024-03-23T09:21:56;8.20;99.90
52513;DHT22;38422;53.172;6.974;2024-03-23T09:24:22;8.10;99.90
52513;DHT22;38422;53.172;6.974;2024-03-23T09:26:47;8.20;99.90
52513;DHT22;38422;53.172;6.974;2024-03-23T09:29:13;8.20;99.90
52513;DHT22;38422;53.172;6.974;2024-03-23T09:31:40;8.40;99.90
52513;DHT22;38422;53.172;6.974;2024-03-23T09:34:06;8.70;99.90
52513;DHT22;38422;53.172;6.974;2024-03-23T09:36:32;8.70;99.90
52513;DHT22;38422;53.172;6.974;2024-03-23T09:38:57;8.80;99.90
52513;DHT22;38422;53.172;6.974;2024-03-23T09:41:23;9.00;99.90
52513;DHT22;38422;53.172;6.974;2024-03-23T09:43:52;8.90;99.90
52513;DHT22;38422;53.172;6.974;2024-03-23T09:46:19;8.90;99.90
52513;DHT22;38422;53.172;6.974;2024-03-23T09:48:46;8.80;99.90
52513;DHT22;38422;53.172;6.974;2024-03-23T09:51:12;8.80;99.90
52513;DHT22;38422;53.172;6.974;2024-03-23T09:53:38;8.90;99.90
52513;DHT22;38422;53.172;6.974;2024-03-23T09:56:04;8.90;99.90
52513;DHT22;38422;53.172;6.974;2024-03-23T09:58:30;9.00;99.90
52513;DHT22;38422;53.172;6.974;2024-03-23T10:00:58;9.20;99.90
52513;DHT22;38422;53.172;6.974;2024-03-23T10:03:23;9.20;99.90
52513;DHT22;38422;53.172;6.974;2024-03-23T10:06:03;9.40;99.90
52513;DHT22;38422;53.172;6.974;2024-03-23T10:08:30;9.70;99.90
52513;DHT22;38422;53.172;6.974;2024-03-23T10:10:56;10.10;99.90
52513;DHT22;38422;53.172;6.974;2024-03-23T10:13:26;10.40;99.90
52513;DHT22;38422;53.172;6.974;2024-03-23T10:15:57;10.10;99.90
52513;DHT22;38422;53.172;6.974;2024-03-23T10:18:23;9.60;99.90
52513;DHT22;38422;53.172;6.974;2024-03-23T10:23:31;8.70;99.90
52513;DHT22;38422;53.172;6.974;2024-03-23T10:28:55;8.30;99.90
52513;DHT22;38422;53.172;6.974;2024-03-23T10:31:23;8.40;99.90
52513;DHT22;38422;53.172;6.974;2024-03-23T10:33:49;8.50;99.90
52513;DHT22;38422;53.172;6.974;2024-03-23T10:36:15;8.60;99.90
52513;DHT22;38422;53.172;6.974;2024-03-23T10:38:43;8.60;99.90
52513;DHT22;38422;53.172;6.974;2024-03-23T10:41:09;8.50;99.90
52513;DHT22;38422;53.172;6.974;2024-03-23T10:43:36;8.60;99.90
52513;DHT22;38422;53.172;6.974;2024-03-23T10:46:03;8.90;99.90
52513;DHT22;38422;53.172;6.974;2024-03-23T10:48:29;9.20;99.90
52513;DHT22;38422;53.172;6.974;2024-03-23T10:50:54;9.40;99.90
52513;DHT22;38422;53.172;6.974;2024-03-23T10:53:22;9.60;99.90
52513;DHT22;38422;53.172;6.974;2024-03-23T10:55:50;9.90;99.90
52513;DHT22;38422;53.172;6.974;2024-03-23T10:58:19;10.30;99.90
52513;DHT22;38422;53.172;6.974;2024-03-23T11:00:46;10.70;99.90
52513;DHT22;38422;53.172;6.974;2024-03-23T11:03:36;10.80;99.90
52513;DHT22;38422;53.172;6.974;2024-03-23T11:06:03;11.00;99.90
52513;DHT22;38422;53.172;6.974;2024-03-23T11:08:37;11.30;99.90
52513;DHT22;38422;53.172;6.974;2024-03-23T11:11:22;11.40;99.90
52513;DHT22;38422;53.172;6.974;2024-03-23T11:13:54;11.40;99.90
52513;DHT22;38422;53.172;6.974;2024-03-23T11:16:27;11.30;99.90
52513;DHT22;38422;53.172;6.974;2024-03-23T11:19:35;11.50;99.90
52513;DHT22;38422;53.172;6.974;2024-03-23T11:22:04;11.50;99.90
52513;DHT22;38422;53.172;6.974;2024-03-23T11:24:31;11.20;99.90
52513;DHT22;38422;53.172;6.974;2024-03-23T11:26:57;10.90;99.90
52513;DHT22;38422;53.172;6.974;2024-03-23T11:29:26;10.50;99.90
52513;DHT22;38422;53.172;6.974;2024-03-23T11:31:53;9.50;99.90
52513;DHT22;38422;53.172;6.974;2024-03-23T11:34:22;8.90;99.90
52513;DHT22;38422;53.172;6.974;2024-03-23T11:36:48;8.40;99.90
52513;DHT22;38422;53.172;6.974;2024-03-23T11:39:19;8.00;99.90
52513;DHT22;38422;53.172;6.974;2024-03-23T11:41:53;7.80;99.90
52513;DHT22;38422;53.172;6.974;2024-03-23T11:44:20;7.60;99.90
52513;DHT22;38422;53.172;6.974;2024-03-23T11:46:48;7.50;99.90
52513;DHT22;38422;53.172;6.974;2024-03-23T11:49:40;7.50;99.90
52513;DHT22;38422;53.172;6.974;2024-03-23T11:52:08;7.60;99.90
52513;DHT22;38422;53.172;6.974;2024-03-23T11:54:34;7.70;99.90
52513;DHT22;38422;53.172;6.974;2024-03-23T11:57:02;8.00;99.90
52513;DHT22;38422;53.172;6.974;2024-03-23T11:59:42;8.30;99.90
52513;DHT22;38422;53.172;6.974;2024-03-23T12:02:12;8.70;99.90
52513;DHT22;38422;53.172;6.974;2024-03-23T12:04:40;9.20;99.90
52513;DHT22;38422;53.172;6.974;2024-03-23T12:09:44;10.10;99.90
52513;DHT22;38422;53.172;6.974;2024-03-23T12:12:17;10.30;99.90
52513;DHT22;38422;53.172;6.974;2024-03-23T12:14:44;10.50;99.90
52513;DHT22;38422;53.172;6.974;2024-03-23T12:17:14;10.90;99.90
52513;DHT22;38422;53.172;6.974;2024-03-23T12:19:41;10.90;99.90
52513;DHT22;38422;53.172;6.974;2024-03-23T12:22:10;11.10;99.90
52513;DHT22;38422;53.172;6.974;2024-03-23T12:24:36;11.30;99.90
52513;DHT22;38422;53.172;6.974;2024-03-23T12:27:03;11.50;99.90
52513;DHT22;38422;53.172;6.974;2024-03-23T12:29:34;11.70;99.90
52513;DHT22;38422;53.172;6.974;2024-03-23T12:32:01;11.50;99.90
52513;DHT22;38422;53.172;6.974;2024-03-23T12:34:27;11.20;99.90
52513;DHT22;38422;53.172;6.974;2024-03-23T12:36:54;11.10;99.90
52513;DHT22;38422;53.172;6.974;2024-03-23T12:39:20;10.90;99.90
52513;DHT22;38422;53.172;6.974;2024-03-23T12:41:49;10.80;99.90
52513;DHT22;38422;53.172;6.974;2024-03-23T12:44:15;10.80;99.90
52513;DHT22;38422;53.172;6.974;2024-03-23T12:46:44;10.90;99.90
52513;DHT22;38422;53.172;6.974;2024-03-23T12:49:11;10.80;99.90
52513;DHT22;38422;53.172;6.974;2024-03-23T12:51:37;10.90;99.90
52513;DHT22;38422;53.172;6.974;2024-03-23T12:54:03;11.00;99.90
52513;DHT22;38422;53.172;6.974;2024-03-23T12:56:28;10.90;99.90
52513;DHT22;38422;53.172;6.974;2024-03-23T12:58:55;10.50;99.90
52513;DHT22;38422;53.172;6.974;2024-03-23T13:01:25;10.50;99.90
52513;DHT22;38422;53.172;6.974;2024-03-23T13:03:52;10.30;99.90
52513;DHT22;38422;53.172;6.974;2024-03-23T13:06:18;10.30;99.90
52513;DHT22;38422;53.172;6.974;2024-03-23T13:08:48;10.20;99.90
52513;DHT22;38422;53.172;6.974;2024-03-23T13:11:15;10.50;99.90
52513;DHT22;38422;53.172;6.974;2024-03-23T13:13:41;10.90;99.90
52513;DHT22;38422;53.172;6.974;2024-03-23T13:16:07;11.20;99.90
52513;DHT22;38422;53.172;6.974;2024-03-23T13:18:33;11.60;99.90
52513;DHT22;38422;53.172;6.974;2024-03-23T13:20:59;11.80;99.90
52513;DHT22;38422;53.172;6.974;2024-03-23T13:23:25;11.70;99.90
52513;DHT22;38422;53.172;6.974;2024-03-23T13:25:55;11.50;99.90
52513;DHT22;38422;53.172;6.974;2024-03-23T13:28:21;11.20;99.90
52513;DHT22;38422;53.172;6.974;2024-03-23T13:30:54;10.80;99.90
52513;DHT22;38422;53.172;6.974;2024-03-23T13:33:21;10.70;99.90
52513;DHT22;38422;53.172;6.974;2024-03-23T13:35:51;10.90;99.90
52513;DHT22;38422;53.172;6.974;2024-03-23T13:38:16;11.30;99.90
52513;DHT22;38422;53.172;6.974;2024-03-23T13:40:52;11.60;99.90
52513;DHT22;38422;53.172;6.974;2024-03-23T13:43:18;12.00;99.90
52513;DHT22;38422;53.172;6.974;2024-03-23T13:45:44;12.40;99.90
52513;DHT22;38422;53.172;6.974;2024-03-23T13:48:10;12.90;99.90
52513;DHT22;38422;53.172;6.974;2024-03-23T13:50:35;13.10;99.90
52513;DHT22;38422;53.172;6.974;2024-03-23T13:53:01;13.30;99.90
52513;DHT22;38422;53.172;6.974;2024-03-23T13:55:27;13.30;99.90
52513;DHT22;38422;53.172;6.974;2024-03-23T13:57:53;13.50;99.90
52513;DHT22;38422;53.172;6.974;2024-03-23T14:00:18;13.60;99.90
52513;DHT22;38422;53.172;6.974;2024-03-23T14:02:46;13.70;99.90
52513;DHT22;38422;53.172;6.974;2024-03-23T14:05:11;13.80;99.90
52513;DHT22;38422;53.172;6.974;2024-03-23T14:07:37;13.70;99.90
52513;DHT22;38422;53.172;6.974;2024-03-23T14:10:03;13.30;99.90
52513;DHT22;38422;53.172;6.974;2024-03-23T14:12:32;13.00;99.90
52513;DHT22;38422;53.172;6.974;2024-03-23T14:14:58;12.60;99.90
52513;DHT22;38422;53.172;6.974;2024-03-23T14:17:23;12.20;99.90
52513;DHT22;38422;53.172;6.974;2024-03-23T14:19:49;11.80;99.90
52513;DHT22;38422;53.172;6.974;2024-03-23T14:22:15;11.40;99.90
52513;DHT22;38422;53.172;6.974;2024-03-23T14:24:45;11.10;99.90
52513;DHT22;38422;53.172;6.974;2024-03-23T14:27:10;10.80;99.90
52513;DHT22;38422;53.172;6.974;2024-03-23T14:29:36;10.50;99.90
52513;DHT22;38422;53.172;6.974;2024-03-23T14:32:02;10.40;99.90
52513;DHT22;38422;53.172;6.974;2024-03-23T14:34:28;10.70;99.90
52513;DHT22;38422;53.172;6.974;2024-03-23T14:36:54;10.90;99.90
52513;DHT22;38422;53.172;6.974;2024-03-23T14:39:23;11.00;99.90
52513;DHT22;38422;53.172;6.974;2024-03-23T14:41:52;10.80;99.90
52513;DHT22;38422;53.172;6.974;2024-03-23T14:44:18;10.60;99.90
52513;DHT22;38422;53.172;6.974;2024-03-23T14:46:44;10.50;99.90
52513;DHT22;38422;53.172;6.974;2024-03-23T14:49:14;10.40;99.90
52513;DHT22;38422;53.172;6.974;2024-03-23T14:51:43;10.50;99.90
52513;DHT22;38422;53.172;6.974;2024-03-23T14:54:09;10.70;99.90
52513;DHT22;38422;53.172;6.974;2024-03-23T14:56:35;11.00;99.90
52513;DHT22;38422;53.172;6.974;2024-03-23T14:59:01;11.40;99.90
52513;DHT22;38422;53.172;6.974;2024-03-23T15:01:27;11.60;99.90
52513;DHT22;38422;53.172;6.974;2024-03-23T15:03:52;11.90;99.90
52513;DHT22;38422;53.172;6.974;2024-03-23T15:06:19;12.00;99.90
52513;DHT22;38422;53.172;6.974;2024-03-23T15:08:45;12.10;99.90
52513;DHT22;38422;53.172;6.974;2024-03-23T15:11:10;12.30;99.90
52513;DHT22;38422;53.172;6.974;2024-03-23T15:13:37;12.30;99.90
52513;DHT22;38422;53.172;6.974;2024-03-23T15:16:04;12.30;99.90
52513;DHT22;38422;53.172;6.974;2024-03-23T15:18:30;12.10;99.90
52513;DHT22;38422;53.172;6.974;2024-03-23T15:20:59;12.10;99.90
52513;DHT22;38422;53.172;6.974;2024-03-23T15:23:29;11.90;99.90
52513;DHT22;38422;53.172;6.974;2024-03-23T15:25:56;11.70;99.90
52513;DHT22;38422;53.172;6.974;2024-03-23T15:28:25;11.50;99.90
52513;DHT22;38422;53.172;6.974;2024-03-23T15:31:07;11.10;99.90
52513;DHT22;38422;53.172;6.974;2024-03-23T15:33:34;10.90;99.90
52513;DHT22;38422;53.172;6.974;2024-03-23T15:36:01;10.70;99.90
52513;DHT22;38422;53.172;6.974;2024-03-23T15:38:27;10.80;99.90
52513;DHT22;38422;53.172;6.974;2024-03-23T15:40:53;10.90;99.90
52513;DHT22;38422;53.172;6.974;2024-03-23T15:43:19;10.90;99.90
52513;DHT22;38422;53.172;6.974;2024-03-23T15:45:54;11.10;99.90
52513;DHT22;38422;53.172;6.974;2024-03-23T15:48:19;11.20;99.90
52513;DHT22;38422;53.172;6.974;2024-03-23T15:50:53;11.00;99.90
52513;DHT22;38422;53.172;6.974;2024-03-23T15:53:20;11.00;99.90
52513;DHT22;38422;53.172;6.974;2024-03-23T15:56:02;10.90;99.90
52513;DHT22;38422;53.172;6.974;2024-03-23T15:58:29;10.80;99.90
52513;DHT22;38422;53.172;6.974;2024-03-23T16:00:56;10.70;99.90
52513;DHT22;38422;53.172;6.974;2024-03-23T16:03:22;10.70;99.90
52513;DHT22;38422;53.172;6.974;2024-03-23T16:05:55;10.60;99.90
52513;DHT22;38422;53.172;6.974;2024-03-23T16:08:22;10.50;99.90
52513;DHT22;38422;53.172;6.974;2024-03-23T16:10:48;10.40;99.90
52513;DHT22;38422;53.172;6.974;2024-03-23T16:13:14;10.40;99.90
52513;DHT22;38422;53.172;6.974;2024-03-23T16:15:40;10.20;99.90
52513;DHT22;38422;53.172;6.974;2024-03-23T16:18:06;10.10;99.90
52513;DHT22;38422;53.172;6.974;2024-03-23T16:20:32;10.10;99.90
52513;DHT22;38422;53.172;6.974;2024-03-23T16:23:02;10.10;99.90
52513;DHT22;38422;53.172;6.974;2024-03-23T16:25:28;10.00;99.90
52513;DHT22;38422;53.172;6.974;2024-03-23T16:27:54;9.90;99.90
52513;DHT22;38422;53.172;6.974;2024-03-23T16:30:20;9.90;99.90
52513;DHT22;38422;53.172;6.974;2024-03-23T16:32:47;9.90;99.90
52513;DHT22;38422;53.172;6.974;2024-03-23T16:35:13;9.90;99.90
52513;DHT22;38422;53.172;6.974;2024-03-23T16:37:40;9.80;99.90
52513;DHT22;38422;53.172;6.974;2024-03-23T16:40:06;9.80;99.90
52513;DHT22;38422;53.172;6.974;2024-03-23T16:42:32;9.80;99.90